sensor_id;sensor_type;location;lat;lon;timestamp;pressure;altitude;pressure_sealevel;temperature;humidity
9035;BME280;4552;43.422;24.592;2022-07-29T00:01:52;99897.16;;;24.54;81.00
9035;BME280;4552;43.422;24.592;2022-07-29T00:04:19;99889.47;;;24.49;81.43
9035;BME280;4552;43.422;24.592;2022-07-29T00:06:46;99897.94;;;24.56;81.79
9035;BME280;4552;43.422;24.592;2022-07-29T00:09:14;99885.94;;;24.49;81.93
9035;BME280;4552;43.422;24.592;2022-07-29T00:11:42;99884.44;;;24.45;81.70
9035;BME280;4552;43.422;24.592;2022-07-29T00:14:10;99877.78;;;24.38;82.02
9035;BME280;4552;43.422;24.592;2022-07-29T00:16:37;99887.66;;;24.50;82.24
9035;BME280;4552;43.422;24.592;2022-07-29T00:19:05;99885.31;;;24.45;81.88
9035;BME280;4552;43.422;24.592;2022-07-29T00:21:32;99886.78;;;24.49;82.02
9035;BME280;4552;43.422;24.592;2022-07-29T00:23:59;99874.50;;;24.47;81.79
9035;BME280;4552;43.422;24.592;2022-07-29T00:26:27;99888.91;;;24.57;81.21
9035;BME280;4552;43.422;24.592;2022-07-29T00:28:59;99890.13;;;24.53;80.89
9035;BME280;4552;43.422;24.592;2022-07-29T00:31:26;99870.72;;;24.49;81.39
9035;BME280;4552;43.422;24.592;2022-07-29T00:33:53;99880.56;;;24.61;80.51
9035;BME280;4552;43.422;24.592;2022-07-29T00:36:21;99879.91;;;24.70;80.16
9035;BME280;4552;43.422;24.592;2022-07-29T00:38:47;99875.28;;;24.85;79.36
9035;BME280;4552;43.422;24.592;2022-07-29T00:41:14;99881.09;;;24.79;79.83
9035;BME280;4552;43.422;24.592;2022-07-29T00:43:41;99886.16;;;24.71;80.19
9035;BME280;4552;43.422;24.592;2022-07-29T00:46:09;99874.56;;;24.70;80.21
9035;BME280;4552;43.422;24.592;2022-07-29T00:48:36;99883.88;;;24.65;80.34
9035;BME280;4552;43.422;24.592;2022-07-29T00:51:05;99884.03;;;24.87;78.96
9035;BME280;4552;43.422;24.592;2022-07-29T00:53:33;99874.22;;;25.11;78.43
9035;BME280;4552;43.422;24.592;2022-07-29T00:56:00;99887.44;;;25.25;76.49
9035;BME280;4552;43.422;24.592;2022-07-29T00:58:28;99880.25;;;25.02;78.52
9035;BME280;4552;43.422;24.592;2022-07-29T01:00:55;99874.69;;;25.05;77.97
9035;BME280;4552;43.422;24.592;2022-07-29T01:03:24;99868.34;;;25.06;77.52
9035;BME280;4552;43.422;24.592;2022-07-29T01:05:52;99869.72;;;24.88;79.17
9035;BME280;4552;43.422;24.592;2022-07-29T01:08:20;99864.72;;;24.58;79.79
9035;BME280;4552;43.422;24.592;2022-07-29T01:10:49;99879.41;;;24.53;80.43
9035;BME280;4552;43.422;24.592;2022-07-29T01:13:19;99863.16;;;24.31;81.82
9035;BME280;4552;43.422;24.592;2022-07-29T01:15:51;99869.88;;;24.36;82.03
9035;BME280;4552;43.422;24.592;2022-07-29T01:18:24;99863.16;;;24.31;81.93
9035;BME280;4552;43.422;24.592;2022-07-29T01:21:15;99872.47;;;24.13;83.21
9035;BME280;4552;43.422;24.592;2022-07-29T01:23:58;99879.31;;;24.17;82.86
9035;BME280;4552;43.422;24.592;2022-07-29T01:26:41;99872.88;;;24.32;82.51
9035;BME280;4552;43.422;24.592;2022-07-29T01:29:17;99880.50;;;24.25;81.95
9035;BME280;4552;43.422;24.592;2022-07-29T01:31:51;99872.19;;;23.65;85.42
9035;BME280;4552;43.422;24.592;2022-07-29T01:34:25;99859.00;;;23.50;85.43
9035;BME280;4552;43.422;24.592;2022-07-29T01:36:59;99880.16;;;23.40;87.56
9035;BME280;4552;43.422;24.592;2022-07-29T01:39:33;99884.66;;;23.52;88.05
9035;BME280;4552;43.422;24.592;2022-07-29T01:42:07;99897.72;;;23.44;88.16
9035;BME280;4552;43.422;24.592;2022-07-29T01:44:43;99897.97;;;23.13;89.80
9035;BME280;4552;43.422;24.592;2022-07-29T01:47:16;99893.97;;;23.06;90.28
9035;BME280;4552;43.422;24.592;2022-07-29T01:49:47;99901.88;;;23.08;90.36
9035;BME280;4552;43.422;24.592;2022-07-29T01:52:20;99900.81;;;22.70;92.18
9035;BME280;4552;43.422;24.592;2022-07-29T01:54:53;99887.97;;;22.48;93.90
9035;BME280;4552;43.422;24.592;2022-07-29T01:57:26;99906.44;;;22.79;92.55
9035;BME280;4552;43.422;24.592;2022-07-29T01:59:57;99903.75;;;22.93;92.17
9035;BME280;4552;43.422;24.592;2022-07-29T02:02:26;99887.78;;;22.65;93.66
9035;BME280;4552;43.422;24.592;2022-07-29T02:04:54;99886.28;;;22.61;94.29
9035;BME280;4552;43.422;24.592;2022-07-29T02:07:25;99896.47;;;22.55;94.17
9035;BME280;4552;43.422;24.592;2022-07-29T02:09:55;99900.00;;;22.55;94.53
9035;BME280;4552;43.422;24.592;2022-07-29T02:12:25;99911.13;;;22.48;95.11
9035;BME280;4552;43.422;24.592;2022-07-29T02:15:00;99906.84;;;22.59;93.75
9035;BME280;4552;43.422;24.592;2022-07-29T02:17:32;99903.31;;;22.73;92.20
9035;BME280;4552;43.422;24.592;2022-07-29T02:20:03;99895.50;;;22.42;94.47
9035;BME280;4552;43.422;24.592;2022-07-29T02:22:31;99901.16;;;22.51;94.76
9035;BME280;4552;43.422;24.592;2022-07-29T02:25:00;99909.22;;;22.50;94.08
9035;BME280;4552;43.422;24.592;2022-07-29T02:27:28;99896.34;;;22.42;95.13
9035;BME280;4552;43.422;24.592;2022-07-29T02:29:58;99917.44;;;22.61;95.23
9035;BME280;4552;43.422;24.592;2022-07-29T02:32:27;99918.78;;;22.54;95.02
9035;BME280;4552;43.422;24.592;2022-07-29T02:34:56;99924.22;;;22.66;93.70
9035;BME280;4552;43.422;24.592;2022-07-29T02:37:25;99890.66;;;22.48;93.94
9035;BME280;4552;43.422;24.592;2022-07-29T02:39:55;99911.25;;;22.60;94.53
9035;BME280;4552;43.422;24.592;2022-07-29T02:42:27;99922.38;;;22.81;93.70
9035;BME280;4552;43.422;24.592;2022-07-29T02:44:57;99915.63;;;23.02;90.54
9035;BME280;4552;43.422;24.592;2022-07-29T02:47:27;99913.03;;;22.88;90.41
9035;BME280;4552;43.422;24.592;2022-07-29T02:50:00;99899.22;;;22.81;91.29
9035;BME280;4552;43.422;24.592;2022-07-29T02:52:32;99907.31;;;22.66;92.03
9035;BME280;4552;43.422;24.592;2022-07-29T02:55:17;99907.41;;;22.64;91.43
9035;BME280;4552;43.422;24.592;2022-07-29T02:57:49;99917.50;;;22.73;90.79
9035;BME280;4552;43.422;24.592;2022-07-29T03:00:21;99917.22;;;22.64;91.31
9035;BME280;4552;43.422;24.592;2022-07-29T03:02:50;99923.81;;;22.58;89.37
9035;BME280;4552;43.422;24.592;2022-07-29T03:05:20;99921.16;;;22.58;88.12
9035;BME280;4552;43.422;24.592;2022-07-29T03:07:53;99919.41;;;22.85;84.84
9035;BME280;4552;43.422;24.592;2022-07-29T03:10:22;99916.53;;;22.88;87.08
9035;BME280;4552;43.422;24.592;2022-07-29T03:12:50;99900.19;;;22.66;87.75
9035;BME280;4552;43.422;24.592;2022-07-29T03:15:19;99920.94;;;22.89;86.40
9035;BME280;4552;43.422;24.592;2022-07-29T03:17:47;99914.41;;;23.07;85.54
9035;BME280;4552;43.422;24.592;2022-07-29T03:20:17;99924.13;;;23.08;86.34
9035;BME280;4552;43.422;24.592;2022-07-29T03:22:44;99910.06;;;23.19;86.66
9035;BME280;4552;43.422;24.592;2022-07-29T03:25:13;99919.97;;;23.31;87.88
9035;BME280;4552;43.422;24.592;2022-07-29T03:27:43;99920.84;;;23.31;87.57
9035;BME280;4552;43.422;24.592;2022-07-29T03:30:12;99918.06;;;23.33;87.76
9035;BME280;4552;43.422;24.592;2022-07-29T03:32:42;99916.41;;;23.44;86.26
9035;BME280;4552;43.422;24.592;2022-07-29T03:35:09;99923.88;;;23.39;84.83
9035;BME280;4552;43.422;24.592;2022-07-29T03:37:36;99923.31;;;23.73;84.94
9035;BME280;4552;43.422;24.592;2022-07-29T03:40:06;99920.06;;;23.56;85.00
9035;BME280;4552;43.422;24.592;2022-07-29T03:42:36;99908.66;;;23.27;85.79
9035;BME280;4552;43.422;24.592;2022-07-29T03:45:08;99917.00;;;23.35;87.55
9035;BME280;4552;43.422;24.592;2022-07-29T03:47:40;99920.84;;;23.31;88.64
9035;BME280;4552;43.422;24.592;2022-07-29T03:50:11;99921.41;;;23.36;88.69
9035;BME280;4552;43.422;24.592;2022-07-29T03:52:41;99911.44;;;23.26;89.25
9035;BME280;4552;43.422;24.592;2022-07-29T03:55:09;99918.31;;;23.42;88.82
9035;BME280;4552;43.422;24.592;2022-07-29T03:57:37;99918.44;;;23.41;89.40
9035;BME280;4552;43.422;24.592;2022-07-29T04:00:08;99926.06;;;23.59;88.08
9035;BME280;4552;43.422;24.592;2022-07-29T04:02:36;99939.03;;;23.65;87.61
9035;BME280;4552;43.422;24.592;2022-07-29T04:05:05;99931.84;;;23.53;87.99
9035;BME280;4552;43.422;24.592;2022-07-29T04:07:34;99925.09;;;24.00;85.79
9035;BME280;4552;43.422;24.592;2022-07-29T04:10:01;99944.22;;;23.93;85.57
9035;BME280;4552;43.422;24.592;2022-07-29T04:12:28;99944.00;;;23.84;86.67
9035;BME280;4552;43.422;24.592;2022-07-29T04:14:55;99944.59;;;24.14;86.56
9035;BME280;4552;43.422;24.592;2022-07-29T04:17:22;99936.03;;;24.09;85.07
9035;BME280;4552;43.422;24.592;2022-07-29T04:19:49;99911.94;;;24.09;84.74
9035;BME280;4552;43.422;24.592;2022-07-29T04:22:16;99925.97;;;24.13;84.77
9035;BME280;4552;43.422;24.592;2022-07-29T04:24:45;99918.44;;;23.92;85.32
9035;BME280;4552;43.422;24.592;2022-07-29T04:27:12;99932.72;;;24.18;85.45
9035;BME280;4552;43.422;24.592;2022-07-29T04:29:39;99948.69;;;24.70;82.71
9035;BME280;4552;43.422;24.592;2022-07-29T04:32:07;99943.72;;;25.25;78.98
9035;BME280;4552;43.422;24.592;2022-07-29T04:34:39;99949.84;;;25.27;78.41
9035;BME280;4552;43.422;24.592;2022-07-29T04:37:06;99956.97;;;25.86;74.98
9035;BME280;4552;43.422;24.592;2022-07-29T04:39:34;99941.34;;;25.80;74.55
9035;BME280;4552;43.422;24.592;2022-07-29T04:42:04;99938.56;;;26.16;73.36
9035;BME280;4552;43.422;24.592;2022-07-29T04:44:41;99934.94;;;26.28;71.82
9035;BME280;4552;43.422;24.592;2022-07-29T04:47:15;99947.81;;;26.80;70.73
9035;BME280;4552;43.422;24.592;2022-07-29T04:49:44;99947.63;;;27.14;69.43
9035;BME280;4552;43.422;24.592;2022-07-29T04:52:14;99960.03;;;27.60;67.78
9035;BME280;4552;43.422;24.592;2022-07-29T04:54:41;99952.59;;;27.84;66.18
9035;BME280;4552;43.422;24.592;2022-07-29T04:57:12;99942.69;;;28.16;63.21
9035;BME280;4552;43.422;24.592;2022-07-29T04:59:42;99947.53;;;28.22;63.00
9035;BME280;4552;43.422;24.592;2022-07-29T05:02:15;99970.41;;;28.48;61.42
9035;BME280;4552;43.422;24.592;2022-07-29T05:04:57;99970.00;;;28.73;61.41
9035;BME280;4552;43.422;24.592;2022-07-29T05:07:24;99966.59;;;28.30;62.74
9035;BME280;4552;43.422;24.592;2022-07-29T05:09:51;99961.53;;;28.57;61.58
9035;BME280;4552;43.422;24.592;2022-07-29T05:12:26;99964.16;;;28.68;60.63
9035;BME280;4552;43.422;24.592;2022-07-29T05:14:54;99966.03;;;28.77;60.22
9035;BME280;4552;43.422;24.592;2022-07-29T05:17:21;99986.66;;;28.88;59.47
9035;BME280;4552;43.422;24.592;2022-07-29T05:19:50;99980.03;;;29.01;58.87
9035;BME280;4552;43.422;24.592;2022-07-29T05:22:19;99967.31;;;28.73;59.18
9035;BME280;4552;43.422;24.592;2022-07-29T05:24:46;99966.44;;;29.61;57.07
9035;BME280;4552;43.422;24.592;2022-07-29T05:27:14;99970.59;;;29.65;55.97
9035;BME280;4552;43.422;24.592;2022-07-29T05:29:43;99979.06;;;29.02;58.17
9035;BME280;4552;43.422;24.592;2022-07-29T05:32:11;99982.84;;;29.69;56.26
9035;BME280;4552;43.422;24.592;2022-07-29T05:34:40;100003.34;;;30.19;54.71
9035;BME280;4552;43.422;24.592;2022-07-29T05:37:09;99999.16;;;30.15;54.19
9035;BME280;4552;43.422;24.592;2022-07-29T05:39:36;99988.44;;;30.81;52.06
9035;BME280;4552;43.422;24.592;2022-07-29T05:42:04;99999.16;;;30.54;52.85
9035;BME280;4552;43.422;24.592;2022-07-29T05:44:41;99988.84;;;29.43;55.72
9035;BME280;4552;43.422;24.592;2022-07-29T05:47:14;99985.28;;;29.03;58.36
9035;BME280;4552;43.422;24.592;2022-07-29T05:49:50;100000.47;;;29.34;57.61
9035;BME280;4552;43.422;24.592;2022-07-29T05:52:21;99977.53;;;29.09;56.77
9035;BME280;4552;43.422;24.592;2022-07-29T05:54:48;100001.34;;;30.21;54.34
9035;BME280;4552;43.422;24.592;2022-07-29T05:57:18;99999.91;;;30.37;53.71
9035;BME280;4552;43.422;24.592;2022-07-29T05:59:49;99997.00;;;30.57;52.16
9035;BME280;4552;43.422;24.592;2022-07-29T06:02:18;100004.75;;;30.43;52.89
9035;BME280;4552;43.422;24.592;2022-07-29T06:04:45;100001.00;;;30.63;52.09
9035;BME280;4552;43.422;24.592;2022-07-29T06:07:12;99996.19;;;30.38;52.37
9035;BME280;4552;43.422;24.592;2022-07-29T06:09:39;99994.75;;;30.43;51.84
9035;BME280;4552;43.422;24.592;2022-07-29T06:12:07;100009.28;;;30.13;54.43
9035;BME280;4552;43.422;24.592;2022-07-29T06:14:35;100014.38;;;29.97;54.28
9035;BME280;4552;43.422;24.592;2022-07-29T06:17:04;99999.56;;;29.14;57.43
9035;BME280;4552;43.422;24.592;2022-07-29T06:19:35;100004.72;;;29.27;57.75
9035;BME280;4552;43.422;24.592;2022-07-29T06:22:02;99992.19;;;29.16;58.35
9035;BME280;4552;43.422;24.592;2022-07-29T06:24:32;99989.00;;;28.81;59.55
9035;BME280;4552;43.422;24.592;2022-07-29T06:26:59;99995.47;;;28.28;61.71
9035;BME280;4552;43.422;24.592;2022-07-29T06:29:29;99992.50;;;27.79;64.26
9035;BME280;4552;43.422;24.592;2022-07-29T06:31:58;99997.34;;;27.85;63.75
9035;BME280;4552;43.422;24.592;2022-07-29T06:34:25;99987.22;;;27.46;65.53
9035;BME280;4552;43.422;24.592;2022-07-29T06:36:53;99991.41;;;28.13;64.05
9035;BME280;4552;43.422;24.592;2022-07-29T06:39:21;99996.06;;;28.11;63.81
9035;BME280;4552;43.422;24.592;2022-07-29T06:41:51;99984.66;;;27.87;64.37
9035;BME280;4552;43.422;24.592;2022-07-29T06:44:20;100004.56;;;28.47;62.81
9035;BME280;4552;43.422;24.592;2022-07-29T06:46:48;100004.22;;;28.82;61.12
9035;BME280;4552;43.422;24.592;2022-07-29T06:49:18;99999.38;;;29.06;60.32
9035;BME280;4552;43.422;24.592;2022-07-29T06:51:46;99999.56;;;29.14;60.02
9035;BME280;4552;43.422;24.592;2022-07-29T06:54:17;99999.97;;;29.10;59.50
9035;BME280;4552;43.422;24.592;2022-07-29T06:56:45;99976.91;;;28.96;59.44
9035;BME280;4552;43.422;24.592;2022-07-29T06:59:12;99984.16;;;28.65;60.09
9035;BME280;4552;43.422;24.592;2022-07-29T07:01:40;99989.13;;;29.00;58.84
9035;BME280;4552;43.422;24.592;2022-07-29T07:04:08;99993.06;;;28.45;60.84
9035;BME280;4552;43.422;24.592;2022-07-29T07:06:36;99977.09;;;28.74;59.17
9035;BME280;4552;43.422;24.592;2022-07-29T07:09:04;99977.88;;;28.95;59.44
9035;BME280;4552;43.422;24.592;2022-07-29T07:11:32;99994.59;;;28.59;60.20
9035;BME280;4552;43.422;24.592;2022-07-29T07:13:59;99994.13;;;29.54;57.17
9035;BME280;4552;43.422;24.592;2022-07-29T07:16:26;99977.91;;;29.44;57.75
9035;BME280;4552;43.422;24.592;2022-07-29T07:19:12;100005.47;;;30.25;54.70
9035;BME280;4552;43.422;24.592;2022-07-29T07:21:45;99980.16;;;30.17;53.55
9035;BME280;4552;43.422;24.592;2022-07-29T07:24:15;99967.22;;;29.63;54.55
9035;BME280;4552;43.422;24.592;2022-07-29T07:26:46;99987.66;;;29.75;55.45
9035;BME280;4552;43.422;24.592;2022-07-29T07:29:13;100000.66;;;29.61;54.97
9035;BME280;4552;43.422;24.592;2022-07-29T07:31:40;99971.81;;;29.33;56.77
9035;BME280;4552;43.422;24.592;2022-07-29T07:34:08;99989.56;;;29.45;57.19
9035;BME280;4552;43.422;24.592;2022-07-29T07:36:38;99989.59;;;28.85;57.84
9035;BME280;4552;43.422;24.592;2022-07-29T07:39:05;99976.97;;;28.34;60.35
9035;BME280;4552;43.422;24.592;2022-07-29T07:41:34;100001.00;;;28.06;60.73
9035;BME280;4552;43.422;24.592;2022-07-29T07:44:10;99973.13;;;27.96;61.50
9035;BME280;4552;43.422;24.592;2022-07-29T07:46:38;99967.97;;;28.04;60.93
9035;BME280;4552;43.422;24.592;2022-07-29T07:49:10;99978.81;;;28.13;61.00
9035;BME280;4552;43.422;24.592;2022-07-29T07:51:39;99977.63;;;28.27;61.86
9035;BME280;4552;43.422;24.592;2022-07-29T07:54:07;99970.91;;;28.42;60.12
9035;BME280;4552;43.422;24.592;2022-07-29T07:56:35;99984.84;;;28.67;60.42
9035;BME280;4552;43.422;24.592;2022-07-29T07:59:03;99987.25;;;28.70;59.66
9035;BME280;4552;43.422;24.592;2022-07-29T08:01:34;99990.91;;;28.60;60.41
9035;BME280;4552;43.422;24.592;2022-07-29T08:04:04;99971.44;;;28.15;60.77
9035;BME280;4552;43.422;24.592;2022-07-29T08:06:31;99968.94;;;28.44;59.99
9035;BME280;4552;43.422;24.592;2022-07-29T08:09:01;99975.19;;;28.65;60.58
9035;BME280;4552;43.422;24.592;2022-07-29T08:11:36;99977.81;;;28.55;60.12
9035;BME280;4552;43.422;24.592;2022-07-29T08:14:03;99982.97;;;28.89;59.88
9035;BME280;4552;43.422;24.592;2022-07-29T08:16:30;99994.88;;;29.16;58.74
9035;BME280;4552;43.422;24.592;2022-07-29T08:19:19;99969.84;;;29.05;57.21
9035;BME280;4552;43.422;24.592;2022-07-29T08:21:47;99982.81;;;29.11;57.44
9035;BME280;4552;43.422;24.592;2022-07-29T08:24:14;99997.75;;;29.24;57.26
9035;BME280;4552;43.422;24.592;2022-07-29T08:26:58;99973.09;;;29.38;56.92
9035;BME280;4552;43.422;24.592;2022-07-29T08:29:26;99998.66;;;29.53;56.55
9035;BME280;4552;43.422;24.592;2022-07-29T08:31:54;99976.31;;;29.91;55.14
9035;BME280;4552;43.422;24.592;2022-07-29T08:34:24;99995.13;;;29.53;55.23
9035;BME280;4552;43.422;24.592;2022-07-29T08:36:52;99985.63;;;29.58;55.65
9035;BME280;4552;43.422;24.592;2022-07-29T08:39:23;99991.91;;;29.68;55.25
9035;BME280;4552;43.422;24.592;2022-07-29T08:41:52;99993.84;;;29.47;55.49
9035;BME280;4552;43.422;24.592;2022-07-29T08:44:25;99968.22;;;29.81;53.53
9035;BME280;4552;43.422;24.592;2022-07-29T08:46:54;99986.25;;;30.28;51.93
9035;BME280;4552;43.422;24.592;2022-07-29T08:49:39;99966.34;;;29.91;51.87
9035;BME280;4552;43.422;24.592;2022-07-29T08:52:24;99967.59;;;30.16;51.79
9035;BME280;4552;43.422;24.592;2022-07-29T08:54:56;99968.19;;;29.72;53.04
9035;BME280;4552;43.422;24.592;2022-07-29T08:57:26;99950.44;;;29.88;51.95
9035;BME280;4552;43.422;24.592;2022-07-29T08:59:58;99955.81;;;29.79;52.00
9035;BME280;4552;43.422;24.592;2022-07-29T09:02:39;99943.91;;;29.81;51.87
9035;BME280;4552;43.422;24.592;2022-07-29T09:05:32;99948.69;;;30.16;51.49
9035;BME280;4552;43.422;24.592;2022-07-29T09:08:01;99964.75;;;30.17;51.35
9035;BME280;4552;43.422;24.592;2022-07-29T09:10:28;99945.59;;;29.73;51.19
9035;BME280;4552;43.422;24.592;2022-07-29T09:13:00;99942.63;;;29.85;50.02
9035;BME280;4552;43.422;24.592;2022-07-29T09:15:33;99955.28;;;29.75;50.03
9035;BME280;4552;43.422;24.592;2022-07-29T09:18:16;99952.72;;;29.64;51.07
9035;BME280;4552;43.422;24.592;2022-07-29T09:21:01;99957.97;;;29.94;51.21
9035;BME280;4552;43.422;24.592;2022-07-29T09:24:06;99949.13;;;30.02;50.48
9035;BME280;4552;43.422;24.592;2022-07-29T09:26:37;99947.16;;;30.04;50.33
9035;BME280;4552;43.422;24.592;2022-07-29T09:29:10;99948.44;;;30.28;50.25
9035;BME280;4552;43.422;24.592;2022-07-29T09:31:42;99953.03;;;30.65;48.98
9035;BME280;4552;43.422;24.592;2022-07-29T09:34:11;99927.91;;;30.45;49.29
9035;BME280;4552;43.422;24.592;2022-07-29T09:36:43;99911.34;;;30.67;48.57
9035;BME280;4552;43.422;24.592;2022-07-29T09:39:27;99941.69;;;30.98;47.58
9035;BME280;4552;43.422;24.592;2022-07-29T09:42:06;99901.66;;;30.65;47.74
9035;BME280;4552;43.422;24.592;2022-07-29T09:44:46;99906.16;;;30.74;47.26
9035;BME280;4552;43.422;24.592;2022-07-29T09:47:17;99938.09;;;30.61;48.37
9035;BME280;4552;43.422;24.592;2022-07-29T09:49:52;99914.97;;;30.49;48.94
9035;BME280;4552;43.422;24.592;2022-07-29T09:52:31;99921.16;;;30.68;47.35
9035;BME280;4552;43.422;24.592;2022-07-29T09:55:05;99927.13;;;30.72;47.26
9035;BME280;4552;43.422;24.592;2022-07-29T09:57:38;99921.56;;;30.83;46.95
9035;BME280;4552;43.422;24.592;2022-07-29T10:00:07;99912.78;;;30.62;47.36
9035;BME280;4552;43.422;24.592;2022-07-29T10:02:36;99905.06;;;30.67;48.03
9035;BME280;4552;43.422;24.592;2022-07-29T10:05:06;99914.03;;;31.04;46.88
9035;BME280;4552;43.422;24.592;2022-07-29T10:07:46;99923.84;;;31.32;46.89
9035;BME280;4552;43.422;24.592;2022-07-29T10:10:23;99919.38;;;31.58;45.69
9035;BME280;4552;43.422;24.592;2022-07-29T10:12:52;99903.22;;;32.01;44.97
9035;BME280;4552;43.422;24.592;2022-07-29T10:15:21;99903.84;;;31.95;43.95
9035;BME280;4552;43.422;24.592;2022-07-29T10:17:50;99905.63;;;31.69;44.38
9035;BME280;4552;43.422;24.592;2022-07-29T10:20:22;99902.00;;;31.60;44.64
9035;BME280;4552;43.422;24.592;2022-07-29T10:26:31;99882.88;;;31.97;44.69
9035;BME280;4552;43.422;24.592;2022-07-29T10:29:10;99885.66;;;32.31;44.18
9035;BME280;4552;43.422;24.592;2022-07-29T10:31:45;99881.13;;;31.88;43.84
9035;BME280;4552;43.422;24.592;2022-07-29T10:34:44;99901.38;;;32.27;44.11
9035;BME280;4552;43.422;24.592;2022-07-29T10:37:52;99900.59;;;31.92;44.06
9035;BME280;4552;43.422;24.592;2022-07-29T10:40:46;99892.88;;;32.22;43.96
9035;BME280;4552;43.422;24.592;2022-07-29T10:43:43;99872.91;;;32.23;43.63
9035;BME280;4552;43.422;24.592;2022-07-29T10:46:13;99872.72;;;31.99;43.65
9035;BME280;4552;43.422;24.592;2022-07-29T10:49:08;99876.84;;;32.03;43.68
9035;BME280;4552;43.422;24.592;2022-07-29T10:51:59;99864.16;;;31.86;43.56
9035;BME280;4552;43.422;24.592;2022-07-29T10:54:51;99849.75;;;32.03;43.58
9035;BME280;4552;43.422;24.592;2022-07-29T10:57:29;99868.38;;;32.57;41.88
9035;BME280;4552;43.422;24.592;2022-07-29T11:00:36;99863.44;;;32.27;40.58
9035;BME280;4552;43.422;24.592;2022-07-29T11:03:44;99858.25;;;32.67;40.24
9035;BME280;4552;43.422;24.592;2022-07-29T11:06:27;99864.00;;;32.64;41.23
9035;BME280;4552;43.422;24.592;2022-07-29T11:09:35;99842.06;;;32.42;41.27
9035;BME280;4552;43.422;24.592;2022-07-29T11:14:58;99846.81;;;32.48;40.96
9035;BME280;4552;43.422;24.592;2022-07-29T11:18:06;99847.16;;;32.45;40.37
9035;BME280;4552;43.422;24.592;2022-07-29T11:30:58;99835.69;;;33.00;36.79
9035;BME280;4552;43.422;24.592;2022-07-29T11:33:36;99824.31;;;32.97;35.77
9035;BME280;4552;43.422;24.592;2022-07-29T11:36:13;99841.81;;;33.10;34.52
9035;BME280;4552;43.422;24.592;2022-07-29T11:38:41;99823.66;;;33.11;34.55
9035;BME280;4552;43.422;24.592;2022-07-29T11:41:23;99826.75;;;33.24;34.54
9035;BME280;4552;43.422;24.592;2022-07-29T11:43:54;99821.19;;;33.50;34.21
9035;BME280;4552;43.422;24.592;2022-07-29T11:46:44;99819.50;;;33.65;33.23
9035;BME280;4552;43.422;24.592;2022-07-29T11:49:19;99827.31;;;33.76;33.31
9035;BME280;4552;43.422;24.592;2022-07-29T11:52:03;99814.94;;;33.73;32.46
9035;BME280;4552;43.422;24.592;2022-07-29T11:54:36;99822.22;;;33.57;33.59
9035;BME280;4552;43.422;24.592;2022-07-29T11:57:07;99805.53;;;33.19;33.18
9035;BME280;4552;43.422;24.592;2022-07-29T11:59:42;99802.16;;;33.25;33.68
9035;BME280;4552;43.422;24.592;2022-07-29T12:02:17;99804.56;;;33.61;33.18
9035;BME280;4552;43.422;24.592;2022-07-29T12:04:52;99812.22;;;33.89;33.13
9035;BME280;4552;43.422;24.592;2022-07-29T12:07:27;99802.84;;;34.08;33.23
9035;BME280;4552;43.422;24.592;2022-07-29T12:09:54;99797.81;;;34.35;31.57
9035;BME280;4552;43.422;24.592;2022-07-29T12:12:21;99806.69;;;34.37;30.81
9035;BME280;4552;43.422;24.592;2022-07-29T12:14:52;99802.81;;;34.16;30.54
9035;BME280;4552;43.422;24.592;2022-07-29T12:17:28;99803.78;;;34.31;31.66
9035;BME280;4552;43.422;24.592;2022-07-29T12:20:00;99791.56;;;34.27;31.04
9035;BME280;4552;43.422;24.592;2022-07-29T12:22:29;99787.84;;;34.20;30.48
9035;BME280;4552;43.422;24.592;2022-07-29T12:25:01;99798.09;;;33.94;30.70
9035;BME280;4552;43.422;24.592;2022-07-29T12:27:29;99779.94;;;33.94;30.96
9035;BME280;4552;43.422;24.592;2022-07-29T12:30:00;99794.31;;;34.19;30.30
9035;BME280;4552;43.422;24.592;2022-07-29T12:32:32;99795.97;;;34.36;29.98
9035;BME280;4552;43.422;24.592;2022-07-29T12:35:03;99779.34;;;34.15;30.20
9035;BME280;4552;43.422;24.592;2022-07-29T12:37:33;99778.28;;;34.40;30.60
9035;BME280;4552;43.422;24.592;2022-07-29T12:40:01;99768.41;;;34.47;31.00
9035;BME280;4552;43.422;24.592;2022-07-29T12:42:31;99758.00;;;34.50;30.17
9035;BME280;4552;43.422;24.592;2022-07-29T12:45:01;99761.28;;;34.46;31.38
9035;BME280;4552;43.422;24.592;2022-07-29T12:47:29;99766.22;;;34.73;30.74
9035;BME280;4552;43.422;24.592;2022-07-29T12:50:09;99757.41;;;35.02;30.60
9035;BME280;4552;43.422;24.592;2022-07-29T12:52:37;99751.44;;;35.06;31.52
9035;BME280;4552;43.422;24.592;2022-07-29T12:55:05;99750.44;;;34.68;30.36
9035;BME280;4552;43.422;24.592;2022-07-29T12:57:32;99753.44;;;34.81;31.05
9035;BME280;4552;43.422;24.592;2022-07-29T13:00:12;99746.09;;;34.82;30.28
9035;BME280;4552;43.422;24.592;2022-07-29T13:02:42;99756.25;;;35.19;30.63
9035;BME280;4552;43.422;24.592;2022-07-29T13:05:11;99738.59;;;35.15;29.13
9035;BME280;4552;43.422;24.592;2022-07-29T13:07:40;99735.19;;;34.90;28.67
9035;BME280;4552;43.422;24.592;2022-07-29T13:10:13;99741.03;;;34.48;29.02
9035;BME280;4552;43.422;24.592;2022-07-29T13:13:02;99721.19;;;34.32;29.31
9035;BME280;4552;43.422;24.592;2022-07-29T13:15:41;99731.91;;;34.25;29.45
9035;BME280;4552;43.422;24.592;2022-07-29T13:18:27;99727.00;;;34.21;28.86
9035;BME280;4552;43.422;24.592;2022-07-29T13:21:11;99747.84;;;34.44;29.70
9035;BME280;4552;43.422;24.592;2022-07-29T13:23:41;99724.66;;;34.56;28.87
9035;BME280;4552;43.422;24.592;2022-07-29T13:26:10;99718.13;;;34.35;29.24
9035;BME280;4552;43.422;24.592;2022-07-29T13:28:38;99727.84;;;34.29;29.22
9035;BME280;4552;43.422;24.592;2022-07-29T13:31:05;99730.97;;;34.57;28.87
9035;BME280;4552;43.422;24.592;2022-07-29T13:33:32;99730.59;;;34.60;29.10
9035;BME280;4552;43.422;24.592;2022-07-29T13:36:03;99731.75;;;34.65;28.33
9035;BME280;4552;43.422;24.592;2022-07-29T13:38:31;99737.28;;;34.80;28.29
9035;BME280;4552;43.422;24.592;2022-07-29T13:40:58;99714.47;;;34.89;28.41
9035;BME280;4552;43.422;24.592;2022-07-29T13:43:25;99705.22;;;34.67;27.50
9035;BME280;4552;43.422;24.592;2022-07-29T13:45:53;99702.91;;;34.79;28.91
9035;BME280;4552;43.422;24.592;2022-07-29T13:48:23;99695.94;;;34.84;28.94
9035;BME280;4552;43.422;24.592;2022-07-29T13:50:52;99704.47;;;35.04;29.07
9035;BME280;4552;43.422;24.592;2022-07-29T13:53:22;99714.28;;;35.13;29.15